sensor_id;sensor_type;location;lat;lon;timestamp;pressure;altitude;pressure_sealevel;temperature;humidity
40992;BME280;29633;49.168;9.848;2023-10-19T00:00:40;95298.41;;;15.69;70.65
40992;BME280;29633;49.168;9.848;2023-10-19T00:03:13;95292.16;;;15.70;70.80
40992;BME280;29633;49.168;9.848;2023-10-19T00:05:39;95299.84;;;15.72;70.92
40992;BME280;29633;49.168;9.848;2023-10-19T00:08:09;95290.78;;;15.74;70.72
40992;BME280;29633;49.168;9.848;2023-10-19T00:10:38;95291.44;;;15.77;70.73
40992;BME280;29633;49.168;9.848;2023-10-19T00:13:05;95298.06;;;15.79;70.79
40992;BME280;29633;49.168;9.848;2023-10-19T00:15:32;95284.00;;;15.80;70.92
40992;BME280;29633;49.168;9.848;2023-10-19T00:18:00;95303.13;;;15.81;71.09
40992;BME280;29633;49.168;9.848;2023-10-19T00:20:49;95293.88;;;15.85;70.90
40992;BME280;29633;49.168;9.848;2023-10-19T00:23:21;95286.84;;;15.85;71.08
40992;BME280;29633;49.168;9.848;2023-10-19T00:26:02;95284.84;;;15.87;70.98
40992;BME280;29633;49.168;9.848;2023-10-19T00:28:39;95275.81;;;15.90;70.90
40992;BME280;29633;49.168;9.848;2023-10-19T00:31:06;95286.28;;;15.90;71.07
40992;BME280;29633;49.168;9.848;2023-10-19T00:33:37;95284.66;;;15.89;71.16
40992;BME280;29633;49.168;9.848;2023-10-19T00:36:08;95277.63;;;15.89;71.29
40992;BME280;29633;49.168;9.848;2023-10-19T00:38:39;95274.44;;;15.94;71.21
40992;BME280;29633;49.168;9.848;2023-10-19T00:41:13;95286.31;;;15.96;71.10
40992;BME280;29633;49.168;9.848;2023-10-19T00:43:44;95284.94;;;16.00;71.10
40992;BME280;29633;49.168;9.848;2023-10-19T00:46:15;95284.34;;;16.05;71.14
40992;BME280;29633;49.168;9.848;2023-10-19T00:49:05;95280.75;;;16.06;71.09
40992;BME280;29633;49.168;9.848;2023-10-19T00:51:40;95271.88;;;16.07;71.05
40992;BME280;29633;49.168;9.848;2023-10-19T00:54:25;95276.91;;;16.02;71.10
40992;BME280;29633;49.168;9.848;2023-10-19T00:56:57;95270.25;;;15.99;71.36
40992;BME280;29633;49.168;9.848;2023-10-19T00:59:26;95268.81;;;15.97;71.41
40992;BME280;29633;49.168;9.848;2023-10-19T01:02:01;95261.38;;;15.94;71.39
40992;BME280;29633;49.168;9.848;2023-10-19T01:04:48;95258.53;;;15.89;71.19
40992;BME280;29633;49.168;9.848;2023-10-19T01:07:28;95256.94;;;15.88;71.72
40992;BME280;29633;49.168;9.848;2023-10-19T01:09:57;95257.72;;;15.88;71.79
40992;BME280;29633;49.168;9.848;2023-10-19T01:12:25;95257.91;;;15.87;71.42
40992;BME280;29633;49.168;9.848;2023-10-19T01:15:12;95259.13;;;15.84;71.79
40992;BME280;29633;49.168;9.848;2023-10-19T01:17:55;95255.69;;;15.84;71.85
40992;BME280;29633;49.168;9.848;2023-10-19T01:20:23;95250.66;;;15.82;71.81
40992;BME280;29633;49.168;9.848;2023-10-19T01:22:56;95245.25;;;15.84;71.89
40992;BME280;29633;49.168;9.848;2023-10-19T01:25:55;95237.16;;;15.79;72.14
40992;BME280;29633;49.168;9.848;2023-10-19T01:28:22;95230.94;;;15.80;72.22
40992;BME280;29633;49.168;9.848;2023-10-19T01:30:54;95226.72;;;15.79;72.29
40992;BME280;29633;49.168;9.848;2023-10-19T01:33:21;95223.91;;;15.80;72.13
40992;BME280;29633;49.168;9.848;2023-10-19T01:35:48;95217.50;;;15.83;72.09
40992;BME280;29633;49.168;9.848;2023-10-19T01:38:33;95219.28;;;15.82;72.34
40992;BME280;29633;49.168;9.848;2023-10-19T01:41:00;95219.28;;;15.82;72.58
40992;BME280;29633;49.168;9.848;2023-10-19T01:43:27;95217.50;;;15.83;72.47
40992;BME280;29633;49.168;9.848;2023-10-19T01:45:57;95221.50;;;15.85;72.59
40992;BME280;29633;49.168;9.848;2023-10-19T01:48:28;95219.13;;;15.84;72.67
40992;BME280;29633;49.168;9.848;2023-10-19T01:51:04;95222.31;;;15.86;72.84
40992;BME280;29633;49.168;9.848;2023-10-19T01:53:32;95222.16;;;15.87;72.96
40992;BME280;29633;49.168;9.848;2023-10-19T01:55:58;95224.75;;;15.87;72.90
40992;BME280;29633;49.168;9.848;2023-10-19T01:58:27;95230.41;;;15.91;72.95
40992;BME280;29633;49.168;9.848;2023-10-19T02:00:55;95217.94;;;15.93;73.09
40992;BME280;29633;49.168;9.848;2023-10-19T02:03:26;95207.72;;;15.98;72.67
40992;BME280;29633;49.168;9.848;2023-10-19T02:06:03;95210.75;;;16.01;73.27
40992;BME280;29633;49.168;9.848;2023-10-19T02:08:36;95194.03;;;15.96;72.79
40992;BME280;29633;49.168;9.848;2023-10-19T02:11:07;95200.91;;;16.03;72.94
40992;BME280;29633;49.168;9.848;2023-10-19T02:13:46;95195.91;;;16.08;73.26
40992;BME280;29633;49.168;9.848;2023-10-19T02:16:18;95197.13;;;16.12;73.42
40992;BME280;29633;49.168;9.848;2023-10-19T02:18:51;95183.44;;;16.17;73.66
40992;BME280;29633;49.168;9.848;2023-10-19T02:21:17;95175.03;;;16.21;73.73
40992;BME280;29633;49.168;9.848;2023-10-19T02:23:58;95179.06;;;16.24;74.28
40992;BME280;29633;49.168;9.848;2023-10-19T02:26:24;95160.97;;;16.29;74.78
40992;BME280;29633;49.168;9.848;2023-10-19T02:28:54;95155.97;;;16.34;75.18
40992;BME280;29633;49.168;9.848;2023-10-19T02:31:22;95144.88;;;16.39;75.21
40992;BME280;29633;49.168;9.848;2023-10-19T02:33:49;95152.13;;;16.43;75.46
40992;BME280;29633;49.168;9.848;2023-10-19T02:36:18;95151.56;;;16.48;75.94
40992;BME280;29633;49.168;9.848;2023-10-19T02:38:48;95140.50;;;16.52;76.31
40992;BME280;29633;49.168;9.848;2023-10-19T02:41:18;95147.38;;;16.60;76.48
40992;BME280;29633;49.168;9.848;2023-10-19T02:43:47;95145.97;;;16.64;76.72
40992;BME280;29633;49.168;9.848;2023-10-19T02:46:22;95144.38;;;16.69;76.73
40992;BME280;29633;49.168;9.848;2023-10-19T02:48:49;95142.34;;;16.71;76.69
40992;BME280;29633;49.168;9.848;2023-10-19T02:51:15;95139.94;;;16.77;76.71
40992;BME280;29633;49.168;9.848;2023-10-19T02:53:41;95135.28;;;16.79;76.84
40992;BME280;29633;49.168;9.848;2023-10-19T02:56:15;95131.28;;;16.83;76.92
40992;BME280;29633;49.168;9.848;2023-10-19T02:58:46;95123.63;;;16.88;76.90
40992;BME280;29633;49.168;9.848;2023-10-19T03:01:20;95122.81;;;16.94;76.58
40992;BME280;29633;49.168;9.848;2023-10-19T03:03:51;95123.63;;;17.01;76.84
40992;BME280;29633;49.168;9.848;2023-10-19T03:06:21;95117.78;;;17.05;76.92
40992;BME280;29633;49.168;9.848;2023-10-19T03:08:48;95114.34;;;17.11;76.67
40992;BME280;29633;49.168;9.848;2023-10-19T03:11:26;95110.72;;;17.19;76.80
40992;BME280;29633;49.168;9.848;2023-10-19T03:13:56;95112.53;;;17.25;76.68
40992;BME280;29633;49.168;9.848;2023-10-19T03:16:23;95114.50;;;17.30;76.30
40992;BME280;29633;49.168;9.848;2023-10-19T03:18:52;95106.66;;;17.36;76.52
40992;BME280;29633;49.168;9.848;2023-10-19T03:21:20;95111.47;;;17.39;76.24
40992;BME280;29633;49.168;9.848;2023-10-19T03:23:53;95108.03;;;17.45;76.13
40992;BME280;29633;49.168;9.848;2023-10-19T03:26:19;95112.66;;;17.50;76.15
40992;BME280;29633;49.168;9.848;2023-10-19T03:28:53;95110.22;;;17.55;76.03
40992;BME280;29633;49.168;9.848;2023-10-19T03:31:23;95114.06;;;17.52;75.96
40992;BME280;29633;49.168;9.848;2023-10-19T03:33:52;95114.28;;;17.44;76.43
40992;BME280;29633;49.168;9.848;2023-10-19T03:36:23;95103.78;;;17.44;76.08
40992;BME280;29633;49.168;9.848;2023-10-19T03:38:50;95104.00;;;17.49;75.99
40992;BME280;29633;49.168;9.848;2023-10-19T03:41:18;95104.59;;;17.51;75.93
40992;BME280;29633;49.168;9.848;2023-10-19T03:43:48;95101.34;;;17.56;75.65
40992;BME280;29633;49.168;9.848;2023-10-19T03:46:15;95095.72;;;17.59;75.73
40992;BME280;29633;49.168;9.848;2023-10-19T03:49:03;95095.09;;;17.63;75.32
40992;BME280;29633;49.168;9.848;2023-10-19T03:51:39;95092.69;;;17.68;75.58
40992;BME280;29633;49.168;9.848;2023-10-19T03:54:25;95085.41;;;17.70;75.32
40992;BME280;29633;49.168;9.848;2023-10-19T03:56:53;95078.94;;;17.73;75.21
40992;BME280;29633;49.168;9.848;2023-10-19T03:59:20;95079.31;;;17.77;75.13
40992;BME280;29633;49.168;9.848;2023-10-19T04:01:47;95081.56;;;17.80;75.05
40992;BME280;29633;49.168;9.848;2023-10-19T04:04:13;95079.50;;;17.82;75.17
40992;BME280;29633;49.168;9.848;2023-10-19T04:06:40;95067.59;;;17.86;75.09
40992;BME280;29633;49.168;9.848;2023-10-19T04:09:06;95062.75;;;17.89;75.03
40992;BME280;29633;49.168;9.848;2023-10-19T04:11:34;95071.41;;;17.90;74.71
40992;BME280;29633;49.168;9.848;2023-10-19T04:14:17;95065.13;;;17.91;74.87
40992;BME280;29633;49.168;9.848;2023-10-19T04:16:43;95064.75;;;17.94;74.83
40992;BME280;29633;49.168;9.848;2023-10-19T04:19:11;95054.03;;;17.95;74.68
40992;BME280;29633;49.168;9.848;2023-10-19T04:21:37;95056.88;;;17.94;74.76
40992;BME280;29633;49.168;9.848;2023-10-19T04:24:10;95043.34;;;17.97;74.63
40992;BME280;29633;49.168;9.848;2023-10-19T04:26:37;95038.09;;;17.97;74.60
40992;BME280;29633;49.168;9.848;2023-10-19T04:29:06;95035.25;;;17.98;74.56
40992;BME280;29633;49.168;9.848;2023-10-19T04:31:43;95041.09;;;18.00;74.74
40992;BME280;29633;49.168;9.848;2023-10-19T04:34:35;95033.22;;;18.00;74.54
40992;BME280;29633;49.168;9.848;2023-10-19T04:37:02;95032.00;;;18.03;74.50
40992;BME280;29633;49.168;9.848;2023-10-19T04:39:28;95026.75;;;18.03;74.34
40992;BME280;29633;49.168;9.848;2023-10-19T04:41:55;95034.63;;;18.03;74.46
40992;BME280;29633;49.168;9.848;2023-10-19T04:44:21;95034.63;;;18.03;74.42
40992;BME280;29633;49.168;9.848;2023-10-19T04:46:48;95024.94;;;18.03;74.15
40992;BME280;29633;49.168;9.848;2023-10-19T04:49:16;95025.13;;;18.02;74.47
40992;BME280;29633;49.168;9.848;2023-10-19T04:51:42;95033.00;;;18.02;73.96
40992;BME280;29633;49.168;9.848;2023-10-19T04:54:09;95016.25;;;18.03;74.03
40992;BME280;29633;49.168;9.848;2023-10-19T04:56:35;95012.84;;;18.02;74.30
40992;BME280;29633;49.168;9.848;2023-10-19T04:59:02;95017.06;;;18.03;74.11
40992;BME280;29633;49.168;9.848;2023-10-19T05:01:28;95014.66;;;18.02;74.21
40992;BME280;29633;49.168;9.848;2023-10-19T05:03:54;95014.06;;;18.00;74.02
40992;BME280;29633;49.168;9.848;2023-10-19T05:06:20;95019.31;;;18.00;73.94
40992;BME280;29633;49.168;9.848;2023-10-19T05:08:47;95008.81;;;18.00;73.98
40992;BME280;29633;49.168;9.848;2023-10-19T05:11:13;95012.44;;;17.99;74.07
40992;BME280;29633;49.168;9.848;2023-10-19T05:13:39;95010.63;;;17.99;74.07
40992;BME280;29633;49.168;9.848;2023-10-19T05:16:05;95010.44;;;18.01;73.94
40992;BME280;29633;49.168;9.848;2023-10-19T05:18:31;95018.50;;;17.99;74.10
40992;BME280;29633;49.168;9.848;2023-10-19T05:20:56;95010.84;;;17.98;73.75
40992;BME280;29633;49.168;9.848;2023-10-19T05:23:23;95018.94;;;17.96;74.02
40992;BME280;29633;49.168;9.848;2023-10-19T05:25:53;95018.31;;;17.94;73.79
40992;BME280;29633;49.168;9.848;2023-10-19T05:28:24;95022.78;;;17.94;74.01
40992;BME280;29633;49.168;9.848;2023-10-19T05:30:51;95023.56;;;17.94;73.93
40992;BME280;29633;49.168;9.848;2023-10-19T05:33:17;95022.78;;;17.94;73.79
40992;BME280;29633;49.168;9.848;2023-10-19T05:35:49;95015.59;;;17.83;73.68
40992;BME280;29633;49.168;9.848;2023-10-19T05:38:16;95023.03;;;17.86;73.69
40992;BME280;29633;49.168;9.848;2023-10-19T05:40:44;95019.03;;;17.83;73.74
40992;BME280;29633;49.168;9.848;2023-10-19T05:43:11;95024.03;;;17.85;73.79
40992;BME280;29633;49.168;9.848;2023-10-19T05:45:38;95029.50;;;17.83;73.49
40992;BME280;29633;49.168;9.848;2023-10-19T05:48:04;95028.09;;;17.81;73.91
40992;BME280;29633;49.168;9.848;2023-10-19T05:50:33;95020.22;;;17.81;73.66
40992;BME280;29633;49.168;9.848;2023-10-19T05:52:59;95035.75;;;17.82;73.44
40992;BME280;29633;49.168;9.848;2023-10-19T05:55:25;95024.25;;;17.83;73.45
40992;BME280;29633;49.168;9.848;2023-10-19T05:57:51;95024.88;;;17.79;73.59
40992;BME280;29633;49.168;9.848;2023-10-19T06:00:17;95034.38;;;17.80;73.39
40992;BME280;29633;49.168;9.848;2023-10-19T06:02:47;95037.56;;;17.82;73.29
40992;BME280;29633;49.168;9.848;2023-10-19T06:05:15;95036.56;;;17.76;73.21
40992;BME280;29633;49.168;9.848;2023-10-19T06:07:46;95043.66;;;17.76;73.11
40992;BME280;29633;49.168;9.848;2023-10-19T06:10:16;95054.53;;;17.73;73.36
40992;BME280;29633;49.168;9.848;2023-10-19T06:12:50;95055.38;;;17.66;73.37
40992;BME280;29633;49.168;9.848;2023-10-19T06:15:22;95050.13;;;17.66;73.61
40992;BME280;29633;49.168;9.848;2023-10-19T06:17:53;95061.00;;;17.70;73.37
40992;BME280;29633;49.168;9.848;2023-10-19T06:20:19;95052.53;;;17.75;73.40
40992;BME280;29633;49.168;9.848;2023-10-19T06:22:58;95049.69;;;17.76;73.05
40992;BME280;29633;49.168;9.848;2023-10-19T06:25:32;95049.69;;;17.76;73.32
40992;BME280;29633;49.168;9.848;2023-10-19T06:28:00;95052.09;;;17.78;73.19
40992;BME280;29633;49.168;9.848;2023-10-19T06:30:27;95056.34;;;17.79;73.15
40992;BME280;29633;49.168;9.848;2023-10-19T06:32:56;95050.28;;;17.78;73.34
40992;BME280;29633;49.168;9.848;2023-10-19T06:35:27;95053.72;;;17.79;73.09
40992;BME280;29633;49.168;9.848;2023-10-19T06:37:54;95050.50;;;17.77;73.23
40992;BME280;29633;49.168;9.848;2023-10-19T06:40:24;95045.66;;;17.74;73.21
40992;BME280;29633;49.168;9.848;2023-10-19T06:42:50;95038.03;;;17.65;73.20
40992;BME280;29633;49.168;9.848;2023-10-19T06:45:17;95027.97;;;17.62;73.70
40992;BME280;29633;49.168;9.848;2023-10-19T06:47:47;95035.22;;;17.67;73.65
40992;BME280;29633;49.168;9.848;2023-10-19T06:50:18;95047.72;;;17.72;73.34
40992;BME280;29633;49.168;9.848;2023-10-19T06:52:46;95046.72;;;17.66;73.63
40992;BME280;29633;49.168;9.848;2023-10-19T06:55:16;95052.75;;;17.66;73.76
40992;BME280;29633;49.168;9.848;2023-10-19T06:57:48;95044.47;;;17.69;73.70
40992;BME280;29633;49.168;9.848;2023-10-19T07:00:16;95045.28;;;17.70;73.18
40992;BME280;29633;49.168;9.848;2023-10-19T07:02:46;95044.88;;;17.73;73.41
40992;BME280;29633;49.168;9.848;2023-10-19T07:05:15;95053.91;;;17.77;73.30
40992;BME280;29633;49.168;9.848;2023-10-19T07:07:45;95058.72;;;17.80;73.08
40992;BME280;29633;49.168;9.848;2023-10-19T07:10:12;95054.09;;;17.82;73.41
40992;BME280;29633;49.168;9.848;2023-10-19T07:12:47;95052.88;;;17.85;73.21
40992;BME280;29633;49.168;9.848;2023-10-19T07:15:14;95049.81;;;17.88;72.65
40992;BME280;29633;49.168;9.848;2023-10-19T07:17:41;95051.25;;;17.90;73.05
40992;BME280;29633;49.168;9.848;2023-10-19T07:20:08;95045.56;;;17.93;73.24
40992;BME280;29633;49.168;9.848;2023-10-19T07:23:00;95042.56;;;17.90;73.23
40992;BME280;29633;49.168;9.848;2023-10-19T07:25:31;95039.53;;;17.93;73.33
40992;BME280;29633;49.168;9.848;2023-10-19T07:27:57;95033.44;;;17.99;73.18
40992;BME280;29633;49.168;9.848;2023-10-19T07:30:25;95041.47;;;18.04;73.40
40992;BME280;29633;49.168;9.848;2023-10-19T07:32:53;95042.28;;;18.04;73.53
40992;BME280;29633;49.168;9.848;2023-10-19T07:35:26;95038.44;;;18.07;73.43
40992;BME280;29633;49.168;9.848;2023-10-19T07:37:52;95040.81;;;18.15;73.40
40992;BME280;29633;49.168;9.848;2023-10-19T07:40:18;95047.81;;;18.21;73.42
40992;BME280;29633;49.168;9.848;2023-10-19T07:42:45;95048.56;;;18.28;73.48
40992;BME280;29633;49.168;9.848;2023-10-19T07:45:12;95053.41;;;18.31;73.53
40992;BME280;29633;49.168;9.848;2023-10-19T07:47:39;95049.56;;;18.34;73.44
40992;BME280;29633;49.168;9.848;2023-10-19T07:50:09;95053.34;;;18.38;73.40
40992;BME280;29633;49.168;9.848;2023-10-19T07:52:47;95046.28;;;18.38;73.46
40992;BME280;29633;49.168;9.848;2023-10-19T07:55:15;95045.28;;;18.39;73.74
40992;BME280;29633;49.168;9.848;2023-10-19T07:57:42;95042.06;;;18.37;73.77
40992;BME280;29633;49.168;9.848;2023-10-19T08:00:12;95040.44;;;18.36;73.69
40992;BME280;29633;49.168;9.848;2023-10-19T08:02:40;95020.69;;;18.34;73.67
40992;BME280;29633;49.168;9.848;2023-10-19T08:05:12;95035.41;;;18.35;73.71
40992;BME280;29633;49.168;9.848;2023-10-19T08:07:39;95037.66;;;18.31;73.62
40992;BME280;29633;49.168;9.848;2023-10-19T08:10:10;95036.06;;;18.30;73.49
40992;BME280;29633;49.168;9.848;2023-10-19T08:12:41;95028.19;;;18.30;73.68
40992;BME280;29633;49.168;9.848;2023-10-19T08:15:11;95024.53;;;18.31;73.74
40992;BME280;29633;49.168;9.848;2023-10-19T08:17:41;95026.34;;;18.31;73.71
40992;BME280;29633;49.168;9.848;2023-10-19T08:20:10;95037.06;;;18.29;73.40
40992;BME280;29633;49.168;9.848;2023-10-19T08:22:42;95035.47;;;18.28;73.48
40992;BME280;29633;49.168;9.848;2023-10-19T08:25:09;95030.59;;;18.32;73.36
40992;BME280;29633;49.168;9.848;2023-10-19T08:27:46;95040.88;;;18.33;73.51
40992;BME280;29633;49.168;9.848;2023-10-19T08:30:18;95023.09;;;18.35;73.35
40992;BME280;29633;49.168;9.848;2023-10-19T08:32:44;95020.47;;;18.35;73.67
40992;BME280;29633;49.168;9.848;2023-10-19T08:35:19;95026.31;;;18.37;73.48
40992;BME280;29633;49.168;9.848;2023-10-19T08:37:52;95034.41;;;18.36;73.91
40992;BME280;29633;49.168;9.848;2023-10-19T08:40:19;95020.03;;;18.38;73.49
40992;BME280;29633;49.168;9.848;2023-10-19T08:42:46;95022.63;;;18.45;73.66
40992;BME280;29633;49.168;9.848;2023-10-19T08:45:13;95011.06;;;18.52;73.65
40992;BME280;29633;49.168;9.848;2023-10-19T08:50:22;95012.63;;;18.60;73.62
40992;BME280;29633;49.168;9.848;2023-10-19T08:52:53;95009.91;;;18.73;73.20
40992;BME280;29633;49.168;9.848;2023-10-19T08:55:20;95005.31;;;18.87;73.11
40992;BME280;29633;49.168;9.848;2023-10-19T08:57:50;95006.63;;;18.96;73.36
40992;BME280;29633;49.168;9.848;2023-10-19T09:00:17;95005.16;;;19.00;73.36
40992;BME280;29633;49.168;9.848;2023-10-19T09:02:50;95008.53;;;19.07;73.49
40992;BME280;29633;49.168;9.848;2023-10-19T09:05:16;94997.19;;;19.13;73.44
40992;BME280;29633;49.168;9.848;2023-10-19T09:07:55;95011.47;;;19.17;73.19
40992;BME280;29633;49.168;9.848;2023-10-19T09:10:26;95007.06;;;19.29;73.36
40992;BME280;29633;49.168;9.848;2023-10-19T09:12:59;95001.81;;;19.29;73.12
40992;BME280;29633;49.168;9.848;2023-10-19T09:15:27;95002.50;;;19.43;73.37
40992;BME280;29633;49.168;9.848;2023-10-19T09:17:54;95001.19;;;19.52;73.03
40992;BME280;29633;49.168;9.848;2023-10-19T09:20:21;95007.97;;;19.59;73.08
40992;BME280;29633;49.168;9.848;2023-10-19T09:22:55;94996.56;;;19.65;73.22
40992;BME280;29633;49.168;9.848;2023-10-19T09:25:27;94996.69;;;19.71;73.01
40992;BME280;29633;49.168;9.848;2023-10-19T09:27:53;94996.81;;;19.76;72.83
40992;BME280;29633;49.168;9.848;2023-10-19T09:30:20;94994.34;;;19.81;73.15
40992;BME280;29633;49.168;9.848;2023-10-19T09:32:47;94984.94;;;20.14;72.69
40992;BME280;29633;49.168;9.848;2023-10-19T09:35:17;94978.84;;;20.55;71.77
40992;BME280;29633;49.168;9.848;2023-10-19T09:37:45;94975.88;;;20.63;71.94
40992;BME280;29633;49.168;9.848;2023-10-19T09:40:11;94978.16;;;20.72;71.82
40992;BME280;29633;49.168;9.848;2023-10-19T09:42:40;94968.66;;;20.82;71.68
40992;BME280;29633;49.168;9.848;2023-10-19T09:45:12;94978.94;;;20.95;71.95
40992;BME280;29633;49.168;9.848;2023-10-19T09:47:42;94977.56;;;21.04;71.79
40992;BME280;29633;49.168;9.848;2023-10-19T09:50:11;94969.75;;;21.09;71.88
40992;BME280;29633;49.168;9.848;2023-10-19T09:52:39;94965.44;;;21.15;71.84
40992;BME280;29633;49.168;9.848;2023-10-19T09:55:29;94968.41;;;21.19;72.43
40992;BME280;29633;49.168;9.848;2023-10-19T09:58:02;94965.16;;;21.28;72.08
40992;BME280;29633;49.168;9.848;2023-10-19T10:00:29;94964.91;;;21.41;72.28
40992;BME280;29633;49.168;9.848;2023-10-19T10:02:57;94960.63;;;21.52;72.22
40992;BME280;29633;49.168;9.848;2023-10-19T10:10:46;94957.72;;;21.65;72.37
40992;BME280;29633;49.168;9.848;2023-10-19T10:15:54;94962.50;;;21.68;72.45
40992;BME280;29633;49.168;9.848;2023-10-19T10:18:23;94964.91;;;21.70;72.55
40992;BME280;29633;49.168;9.848;2023-10-19T10:21:10;94971.44;;;21.67;72.41
40992;BME280;29633;49.168;9.848;2023-10-19T10:23:58;94965.94;;;21.69;72.24
40992;BME280;29633;49.168;9.848;2023-10-19T10:26:27;94964.91;;;21.70;72.26
40992;BME280;29633;49.168;9.848;2023-10-19T10:29:15;94963.63;;;21.72;72.56
40992;BME280;29633;49.168;9.848;2023-10-19T10:31:48;94963.97;;;21.76;72.36
40992;BME280;29633;49.168;9.848;2023-10-19T10:37:09;94951.53;;;21.88;72.71
40992;BME280;29633;49.168;9.848;2023-10-19T10:39:38;94945.31;;;21.94;72.92
40992;BME280;29633;49.168;9.848;2023-10-19T10:42:09;94940.69;;;22.01;72.69
40992;BME280;29633;49.168;9.848;2023-10-19T10:47:16;94939.84;;;22.12;72.95
40992;BME280;29633;49.168;9.848;2023-10-19T10:49:58;94945.97;;;22.18;72.72
40992;BME280;29633;49.168;9.848;2023-10-19T10:52:35;94937.13;;;22.24;72.70
40992;BME280;29633;49.168;9.848;2023-10-19T10:55:13;94934.31;;;22.30;72.44
40992;BME280;29633;49.168;9.848;2023-10-19T10:57:41;94929.84;;;22.31;72.53
40992;BME280;29633;49.168;9.848;2023-10-19T11:00:10;94930.97;;;22.35;72.55
40992;BME280;29633;49.168;9.848;2023-10-19T11:02:44;94932.22;;;22.32;72.32
40992;BME280;29633;49.168;9.848;2023-10-19T11:05:14;94929.84;;;22.31;72.44
40992;BME280;29633;49.168;9.848;2023-10-19T11:08:02;94925.91;;;22.33;72.33
40992;BME280;29633;49.168;9.848;2023-10-19T11:10:29;94919.03;;;22.32;72.33
40992;BME280;29633;49.168;9.848;2023-10-19T11:13:10;94919.81;;;22.33;72.34
40992;BME280;29633;49.168;9.848;2023-10-19T11:15:38;94915.34;;;22.33;72.72
40992;BME280;29633;49.168;9.848;2023-10-19T11:18:07;94918.00;;;22.33;72.63
40992;BME280;29633;49.168;9.848;2023-10-19T11:20:36;94917.19;;;22.33;72.41
40992;BME280;29633;49.168;9.848;2023-10-19T11:23:02;94915.28;;;22.28;72.86
40992;BME280;29633;49.168;9.848;2023-10-19T11:25:30;94913.19;;;22.30;72.94
40992;BME280;29633;49.168;9.848;2023-10-19T11:27:59;94914.81;;;22.31;72.58
40992;BME280;29633;49.168;9.848;2023-10-19T11:30:28;94917.19;;;22.33;72.82
40992;BME280;29633;49.168;9.848;2023-10-19T11:32:55;94917.19;;;22.33;72.61
40992;BME280;29633;49.168;9.848;2023-10-19T11:35:30;94917.19;;;22.33;72.69
40992;BME280;29633;49.168;9.848;2023-10-19T11:38:00;94918.25;;;22.32;72.54
40992;BME280;29633;49.168;9.848;2023-10-19T11:40:28;94914.53;;;22.33;72.38
40992;BME280;29633;49.168;9.848;2023-10-19T11:42:54;94915.34;;;22.33;72.34
40992;BME280;29633;49.168;9.848;2023-10-19T11:45:24;94909.25;;;22.33;72.28
40992;BME280;29633;49.168;9.848;2023-10-19T11:47:50;94916.97;;;22.34;72.29
40992;BME280;29633;49.168;9.848;2023-10-19T11:50:20;94915.94;;;22.35;72.32
40992;BME280;29633;49.168;9.848;2023-10-19T11:52:46;94918.78;;;22.34;72.30
40992;BME280;29633;49.168;9.848;2023-10-19T11:55:16;94913.75;;;22.32;72.40
40992;BME280;29633;49.168;9.848;2023-10-19T11:57:42;94922.72;;;22.31;72.28
40992;BME280;29633;49.168;9.848;2023-10-19T12:00:13;94908.94;;;22.29;72.40
40992;BME280;29633;49.168;9.848;2023-10-19T12:02:48;94918.72;;;22.29;72.35
40992;BME280;29633;49.168;9.848;2023-10-19T12:05:14;94913.38;;;22.24;72.06
40992;BME280;29633;49.168;9.848;2023-10-19T12:07:40;94920.16;;;22.20;72.24
40992;BME280;29633;49.168;9.848;2023-10-19T12:10:08;94911.91;;;22.16;72.68
40992;BME280;29633;49.168;9.848;2023-10-19T12:12:38;94913.53;;;22.17;72.25
40992;BME280;29633;49.168;9.848;2023-10-19T12:15:05;94910.00;;;22.12;72.42
40992;BME280;29633;49.168;9.848;2023-10-19T12:17:31;94912.09;;;22.10;72.64
40992;BME280;29633;49.168;9.848;2023-10-19T12:19:59;94906.94;;;22.03;72.27
40992;BME280;29633;49.168;9.848;2023-10-19T12:22:25;94901.13;;;22.01;72.31
40992;BME280;29633;49.168;9.848;2023-10-19T12:24:57;94903.97;;;21.99;72.14
40992;BME280;29633;49.168;9.848;2023-10-19T12:27:24;94911.13;;;21.99;72.42
40992;BME280;29633;49.168;9.848;2023-10-19T12:29:51;94902.63;;;21.97;72.28
40992;BME280;29633;49.168;9.848;2023-10-19T12:32:21;94903.91;;;21.94;72.23
40992;BME280;29633;49.168;9.848;2023-10-19T12:34:47;94900.69;;;21.92;72.25
40992;BME280;29633;49.168;9.848;2023-10-19T12:37:19;94895.31;;;21.87;72.44
40992;BME280;29633;49.168;9.848;2023-10-19T12:39:45;94900.50;;;21.82;72.40
40992;BME280;29633;49.168;9.848;2023-10-19T12:42:16;94894.91;;;21.79;72.45
40992;BME280;29633;49.168;9.848;2023-10-19T12:44:42;94895.88;;;21.73;72.73
40992;BME280;29633;49.168;9.848;2023-10-19T12:47:09;94896.34;;;21.70;72.59
40992;BME280;29633;49.168;9.848;2023-10-19T12:49:42;94894.97;;;21.67;72.84
40992;BME280;29633;49.168;9.848;2023-10-19T12:52:10;94896.25;;;21.65;72.78
40992;BME280;29633;49.168;9.848;2023-10-19T12:54:37;94894.09;;;21.62;72.71
40992;BME280;29633;49.168;9.848;2023-10-19T12:57:04;94888.81;;;21.62;73.07
40992;BME280;29633;49.168;9.848;2023-10-19T12:59:34;94886.88;;;21.57;72.90
40992;BME280;29633;49.168;9.848;2023-10-19T13:02:03;94891.28;;;21.51;73.39
40992;BME280;29633;49.168;9.848;2023-10-19T13:04:29;94886.72;;;21.47;73.54
40992;BME280;29633;49.168;9.848;2023-10-19T13:06:56;94879.34;;;21.49;73.28
40992;BME280;29633;49.168;9.848;2023-10-19T13:09:25;94878.91;;;21.52;73.57
40992;BME280;29633;49.168;9.848;2023-10-19T13:12:00;94880.47;;;21.53;73.55
40992;BME280;29633;49.168;9.848;2023-10-19T13:14:28;94876.97;;;21.47;73.54
40992;BME280;29633;49.168;9.848;2023-10-19T13:16:54;94867.22;;;21.48;73.99
40992;BME280;29633;49.168;9.848;2023-10-19T13:19:23;94859.06;;;21.49;73.85
40992;BME280;29633;49.168;9.848;2023-10-19T13:21:52;94859.53;;;21.46;73.48
40992;BME280;29633;49.168;9.848;2023-10-19T13:24:19;94854.84;;;21.48;73.75
40992;BME280;29633;49.168;9.848;2023-10-19T13:26:48;94843.25;;;21.49;73.77
40992;BME280;29633;49.168;9.848;2023-10-19T13:29:14;94847.47;;;21.50;73.88
40992;BME280;29633;49.168;9.848;2023-10-19T13:31:41;94844.53;;;21.47;73.76